createdAt,value
2023-03-06T00:02:21.418Z,49.26
2023-03-06T00:04:48.483Z,49.55
2023-03-06T00:07:15.252Z,49.33
2023-03-06T00:09:42.376Z,49.26
2023-03-06T00:12:09.432Z,49.56
2023-03-06T00:14:36.490Z,49.28
2023-03-06T00:17:03.289Z,49.28
2023-03-06T00:19:30.332Z,49.21
2023-03-06T00:21:57.400Z,49.31
2023-03-06T00:24:24.490Z,49.46
2023-03-06T00:26:51.296Z,49.69
2023-03-06T00:29:18.344Z,49.07
2023-03-06T00:31:47.884Z,49.25
2023-03-06T00:34:15.141Z,49.24
2023-03-06T00:36:42.032Z,49.60
2023-03-06T00:39:09.210Z,49.39
2023-03-06T00:41:36.046Z,49.21
2023-03-06T00:44:03.106Z,49.17
2023-03-06T00:46:29.880Z,49.06
2023-03-06T00:48:56.973Z,49.27
2023-03-06T00:51:23.749Z,49.56
2023-03-06T00:53:50.804Z,49.62
2023-03-06T00:56:19.845Z,49.33
2023-03-06T00:58:47.010Z,49.29
2023-03-06T01:01:13.786Z,49.24
2023-03-06T01:03:41.023Z,49.49
2023-03-06T01:06:07.857Z,49.25
2023-03-06T01:08:34.939Z,49.41
2023-03-06T01:11:01.688Z,49.03
2023-03-06T01:13:28.732Z,49.25
2023-03-06T01:15:55.548Z,49.46
2023-03-06T01:18:22.649Z,49.26
2023-03-06T01:20:50.454Z,49.52
2023-03-06T01:23:17.480Z,49.49
2023-03-06T01:25:44.218Z,49.50
2023-03-06T01:28:11.292Z,49.39
2023-03-06T01:30:38.033Z,49.25
2023-03-06T01:33:05.142Z,49.10
2023-03-06T01:35:31.937Z,49.44
2023-03-06T01:37:59.032Z,49.80
2023-03-06T01:40:25.793Z,49.68
2023-03-06T01:42:53.052Z,49.76
2023-03-06T01:45:19.762Z,49.55
2023-03-06T01:47:46.831Z,49.66
2023-03-06T01:50:13.609Z,49.39
2023-03-06T01:52:52.506Z,49.71
2023-03-06T01:55:24.929Z,49.51
2023-03-06T01:57:53.633Z,49.69
2023-03-06T02:00:29.624Z,49.79
2023-03-06T02:03:35.336Z,49.74
2023-03-06T02:06:02.158Z,49.78
2023-03-06T02:08:29.199Z,49.71
2023-03-06T02:11:11.209Z,49.64
2023-03-06T02:13:38.341Z,49.64
2023-03-06T02:16:05.427Z,49.58
2023-03-06T02:18:33.297Z,49.90
2023-03-06T02:21:02.516Z,49.91
2023-03-06T02:23:54.554Z,49.88
2023-03-06T02:26:21.400Z,49.83
2023-03-06T02:28:48.430Z,49.83
2023-03-06T02:31:26.926Z,49.82
2023-03-06T02:34:15.399Z,49.71
2023-03-06T02:36:49.921Z,49.84
2023-03-06T02:39:18.684Z,49.97
2023-03-06T02:41:45.418Z,49.76
2023-03-06T02:44:12.478Z,49.91
2023-03-06T02:46:39.284Z,50.06
2023-03-06T02:49:06.362Z,49.77
2023-03-06T02:51:33.115Z,49.61
2023-03-06T02:54:00.193Z,49.80
2023-03-06T02:56:27.042Z,50.04
2023-03-06T02:58:54.166Z,49.94
2023-03-06T03:01:20.924Z,50.07
2023-03-06T03:03:48.012Z,49.75
2023-03-06T03:06:14.774Z,50.00
2023-03-06T03:08:41.789Z,50.08
2023-03-06T03:11:09.393Z,49.76
2023-03-06T03:13:37.594Z,50.08
2023-03-06T03:16:08.822Z,50.16
2023-03-06T03:18:36.185Z,50.18
2023-03-06T03:21:06.750Z,49.74
2023-03-06T03:23:33.788Z,50.08
2023-03-06T03:26:11.591Z,49.92
2023-03-06T03:28:38.653Z,50.01
2023-03-06T03:31:06.479Z,50.08
2023-03-06T03:33:33.790Z,49.90
2023-03-06T03:36:01.099Z,50.10
2023-03-06T03:38:28.226Z,49.99
2023-03-06T03:40:54.970Z,49.99
2023-03-06T03:43:22.035Z,50.15
2023-03-06T03:45:48.786Z,49.93
2023-03-06T03:48:15.822Z,49.65
2023-03-06T03:50:42.596Z,49.68
2023-03-06T03:53:09.773Z,49.91
2023-03-06T03:55:36.715Z,49.78
2023-03-06T03:58:03.749Z,49.91
2023-03-06T04:00:30.502Z,50.27
2023-03-06T04:02:57.571Z,50.04
2023-03-06T04:05:24.330Z,49.80
2023-03-06T04:07:51.414Z,49.95
2023-03-06T04:10:18.190Z,50.12
2023-03-06T04:12:45.274Z,49.97
2023-03-06T04:15:12.047Z,50.14
2023-03-06T04:17:39.179Z,49.98
2023-03-06T04:20:06.378Z,49.62
2023-03-06T04:22:33.463Z,49.86
2023-03-06T04:25:00.214Z,49.65
2023-03-06T04:27:27.233Z,49.75
2023-03-06T04:29:56.399Z,49.68
2023-03-06T04:32:24.016Z,49.75
2023-03-06T04:34:50.953Z,49.88
2023-03-06T04:37:22.304Z,49.52
2023-03-06T04:39:49.171Z,49.68
2023-03-06T04:42:16.357Z,49.78
2023-03-06T04:44:43.175Z,49.58
2023-03-06T04:47:10.376Z,49.96
2023-03-06T04:49:37.204Z,49.99
2023-03-06T04:52:04.427Z,49.96
2023-03-06T04:54:31.322Z,50.03
2023-03-06T04:56:58.423Z,49.46
2023-03-06T04:59:25.188Z,49.62
2023-03-06T05:01:52.311Z,49.78
2023-03-06T05:04:19.109Z,49.34
2023-03-06T05:06:46.214Z,49.38
2023-03-06T05:09:12.976Z,49.67
2023-03-06T05:11:40.041Z,49.25
2023-03-06T05:14:06.825Z,49.62
2023-03-06T05:16:33.873Z,49.23
2023-03-06T05:19:00.650Z,49.42
2023-03-06T05:21:27.701Z,49.51
2023-03-06T05:23:54.476Z,49.41
2023-03-06T05:26:21.536Z,49.31
2023-03-06T05:28:48.310Z,49.42
2023-03-06T05:31:15.480Z,49.59
2023-03-06T05:33:42.313Z,49.65
2023-03-06T05:36:09.580Z,49.15
2023-03-06T05:38:36.371Z,49.39
2023-03-06T05:41:03.508Z,49.41
2023-03-06T05:43:30.255Z,49.36
2023-03-06T05:46:02.582Z,49.03
2023-03-06T05:48:29.541Z,49.25
2023-03-06T05:50:57.562Z,49.31
2023-03-06T05:53:24.394Z,49.09
2023-03-06T05:56:02.710Z,49.25
2023-03-06T05:58:29.878Z,49.26
2023-03-06T06:00:57.035Z,49.04
2023-03-06T06:03:23.918Z,49.17
2023-03-06T06:05:51.330Z,49.08
2023-03-06T06:08:18.578Z,48.96
2023-03-06T06:10:45.660Z,49.04
2023-03-06T06:13:12.413Z,49.17
2023-03-06T06:15:39.474Z,49.24
2023-03-06T06:18:06.301Z,49.35
2023-03-06T06:20:33.369Z,49.34
2023-03-06T06:23:00.158Z,49.12
2023-03-06T06:25:27.202Z,49.33
2023-03-06T06:27:57.774Z,49.19
2023-03-06T06:30:24.970Z,49.07
2023-03-06T06:32:51.741Z,49.41
2023-03-06T06:35:18.860Z,49.08
2023-03-06T06:37:45.621Z,48.79
2023-03-06T06:40:12.953Z,48.82
2023-03-06T06:42:40.264Z,49.01
2023-03-06T06:45:11.528Z,48.76
2023-03-06T06:47:41.669Z,48.87
2023-03-06T06:50:13.105Z,48.93
2023-03-06T06:52:40.196Z,48.59
2023-03-06T06:55:07.733Z,48.24
2023-03-06T06:57:34.514Z,48.48
2023-03-06T07:00:01.556Z,48.46
2023-03-06T07:02:28.440Z,48.45
2023-03-06T07:05:04.198Z,48.73
2023-03-06T07:07:33.624Z,48.94
2023-03-06T07:10:00.713Z,48.58
2023-03-06T07:12:27.540Z,48.70
2023-03-06T07:14:54.647Z,48.80
2023-03-06T07:17:21.420Z,48.46
2023-03-06T07:19:48.635Z,48.64
2023-03-06T07:22:15.444Z,48.41
2023-03-06T07:24:42.538Z,48.34
2023-03-06T07:27:09.251Z,48.49
2023-03-06T07:29:36.335Z,48.10
2023-03-06T07:32:03.206Z,48.43
2023-03-06T07:34:30.305Z,48.46
2023-03-06T07:36:57.043Z,48.09
2023-03-06T07:39:24.161Z,48.49
2023-03-06T07:41:52.242Z,48.34
2023-03-06T07:44:20.083Z,48.70
2023-03-06T07:46:46.882Z,48.65
2023-03-06T07:49:14.050Z,48.60
2023-03-06T07:51:40.823Z,48.34
2023-03-06T07:54:07.866Z,48.55
2023-03-06T07:56:35.144Z,48.46
2023-03-06T07:59:03.523Z,48.43
2023-03-06T08:01:30.329Z,48.76
2023-03-06T08:03:57.736Z,48.50
2023-03-06T08:06:26.243Z,48.66
2023-03-06T08:08:53.947Z,48.32
2023-03-06T08:11:22.112Z,48.53
2023-03-06T08:13:49.346Z,48.67
2023-03-06T08:16:17.441Z,48.39
2023-03-06T08:18:46.311Z,48.56
2023-03-06T08:21:23.931Z,48.52
2023-03-06T08:23:51.126Z,48.57
2023-03-06T08:26:26.098Z,48.90
2023-03-06T08:28:54.331Z,48.49
2023-03-06T08:31:27.636Z,48.74
2023-03-06T08:33:55.274Z,48.67
2023-03-06T08:36:22.121Z,48.66
2023-03-06T08:38:49.188Z,48.99
2023-03-06T08:41:15.960Z,48.65
2023-03-06T08:43:43.243Z,48.61
2023-03-06T08:46:10.435Z,48.60
2023-03-06T08:48:37.787Z,48.83
2023-03-06T08:51:04.756Z,48.39
2023-03-06T08:53:42.772Z,48.52
2023-03-06T08:56:30.149Z,48.41
2023-03-06T08:58:58.252Z,48.54
2023-03-06T09:01:26.747Z,48.30
2023-03-06T09:03:58.126Z,48.60
2023-03-06T09:06:25.265Z,48.33
2023-03-06T09:08:53.045Z,48.57
2023-03-06T09:11:19.909Z,48.77
2023-03-06T09:13:47.290Z,48.61
2023-03-06T09:16:14.114Z,48.48
2023-03-06T09:18:41.439Z,48.29
2023-03-06T09:21:08.970Z,48.39
2023-03-06T09:23:37.105Z,48.48
2023-03-06T09:26:03.997Z,48.16
2023-03-06T09:28:31.202Z,48.16
2023-03-06T09:30:58.075Z,48.30
2023-03-06T09:33:25.661Z,48.25
2023-03-06T09:35:56.327Z,48.37
2023-03-06T09:38:25.518Z,48.14
2023-03-06T09:41:02.176Z,47.91
2023-03-06T09:43:30.793Z,47.87
2023-03-06T09:45:58.632Z,47.91
2023-03-06T09:48:44.596Z,47.98
2023-03-06T09:51:15.179Z,47.60
2023-03-06T09:53:51.104Z,47.72
2023-03-06T09:56:22.636Z,47.45
2023-03-06T09:58:59.640Z,47.75
2023-03-06T10:01:28.367Z,47.00
2023-03-06T10:04:23.422Z,46.99
2023-03-06T10:06:51.787Z,46.83
2023-03-06T10:09:21.819Z,46.59
2023-03-06T10:12:24.570Z,46.54
2023-03-06T10:15:02.154Z,46.29
2023-03-06T10:17:34.568Z,46.36
2023-03-06T10:20:06.994Z,46.14
2023-03-06T10:22:46.139Z,46.20
2023-03-06T10:25:28.147Z,45.68
2023-03-06T10:28:21.885Z,45.85
2023-03-06T10:31:14.019Z,45.75
2023-03-06T10:33:57.378Z,45.57
2023-03-06T10:36:28.866Z,45.35
2023-03-06T10:38:57.149Z,44.96
2023-03-06T10:41:31.253Z,45.19
2023-03-06T10:44:00.779Z,45.03
2023-03-06T10:46:29.767Z,45.35
2023-03-06T10:49:28.393Z,45.26
2023-03-06T10:52:20.875Z,45.19
2023-03-06T10:54:48.399Z,44.70
2023-03-06T10:57:35.828Z,44.83
2023-03-06T11:00:06.016Z,44.41
2023-03-06T11:02:38.538Z,44.45
2023-03-06T11:05:05.952Z,44.25
2023-03-06T11:07:34.247Z,44.02
2023-03-06T11:10:07.620Z,43.82
2023-03-06T11:12:41.911Z,43.70
2023-03-06T11:15:14.845Z,43.68
2023-03-06T11:18:00.353Z,43.50
2023-03-06T11:20:52.566Z,43.32
2023-03-06T11:23:37.322Z,43.21
2023-03-06T11:26:20.101Z,43.59
2023-03-06T11:28:48.555Z,43.13
2023-03-06T11:31:17.361Z,43.17
2023-03-06T11:34:08.932Z,42.91
2023-03-06T11:36:47.749Z,42.71
2023-03-06T11:39:22.684Z,42.37
2023-03-06T11:42:42.746Z,42.36
2023-03-06T11:45:24.159Z,41.97
2023-03-06T11:47:53.526Z,41.72
2023-03-06T11:50:49.671Z,41.85
2023-03-06T11:53:21.407Z,41.68
2023-03-06T11:55:54.511Z,41.97
2023-03-06T11:58:46.004Z,42.20
2023-03-06T12:01:15.013Z,42.16
2023-03-06T12:03:47.757Z,41.61
2023-03-06T12:06:30.586Z,41.45
2023-03-06T12:09:01.712Z,41.50
2023-03-06T12:11:49.576Z,41.59
2023-03-06T12:14:41.287Z,41.31
2023-03-06T12:17:08.452Z,41.02
2023-03-06T12:19:38.419Z,41.05
2023-03-06T12:22:24.345Z,40.86
2023-03-06T12:25:06.204Z,40.27
2023-03-06T12:27:33.264Z,39.97
2023-03-06T12:30:21.561Z,39.87
2023-03-06T12:33:10.391Z,39.81
2023-03-06T12:35:40.053Z,39.53
2023-03-06T12:38:34.835Z,39.64
2023-03-06T12:41:10.805Z,39.41
2023-03-06T12:43:50.455Z,39.27
2023-03-06T12:46:21.523Z,39.52
2023-03-06T12:49:03.271Z,39.33
2023-03-06T12:51:30.281Z,39.21
2023-03-06T12:53:57.969Z,39.15
2023-03-06T12:56:24.815Z,39.19
2023-03-06T12:58:53.187Z,38.84
2023-03-06T13:01:35.915Z,38.79
2023-03-06T13:04:24.252Z,38.87
2023-03-06T13:06:59.998Z,38.67
2023-03-06T13:09:36.004Z,38.79
2023-03-06T13:12:21.379Z,38.67
2023-03-06T13:14:54.819Z,38.50
2023-03-06T13:17:27.766Z,38.41
2023-03-06T13:20:13.518Z,38.61
2023-03-06T13:22:44.302Z,38.78
2023-03-06T13:25:17.409Z,38.87
2023-03-06T13:27:45.365Z,39.09
2023-03-06T13:30:39.086Z,39.34
2023-03-06T13:33:25.003Z,39.28
2023-03-06T13:35:59.083Z,39.47
2023-03-06T13:38:39.513Z,39.64
2023-03-06T13:41:25.100Z,39.93
2023-03-06T13:44:02.918Z,40.03
2023-03-06T13:46:35.229Z,40.26
2023-03-06T13:49:08.055Z,40.51
2023-03-06T13:51:54.134Z,40.31
2023-03-06T13:54:20.854Z,40.77
2023-03-06T13:57:02.396Z,40.50
2023-03-06T14:00:12.046Z,40.92
2023-03-06T14:02:56.555Z,41.05
2023-03-06T14:05:23.607Z,41.34
2023-03-06T14:08:09.164Z,41.40
2023-03-06T14:10:36.348Z,41.48
2023-03-06T14:13:13.109Z,41.97
2023-03-06T14:15:44.593Z,41.57
2023-03-06T14:18:20.538Z,41.67
2023-03-06T14:21:08.895Z,41.96
2023-03-06T14:23:38.286Z,41.88
2023-03-06T14:26:15.271Z,42.19
2023-03-06T14:29:03.059Z,42.04
2023-03-06T14:31:34.191Z,42.15
2023-03-06T14:34:08.799Z,42.27
2023-03-06T14:36:41.744Z,42.15
2023-03-06T14:39:15.755Z,42.11
2023-03-06T14:41:42.594Z,42.39
2023-03-06T14:44:21.512Z,42.51
2023-03-06T14:46:55.741Z,42.82
2023-03-06T14:49:24.731Z,42.48
2023-03-06T14:51:56.413Z,42.36
2023-03-06T14:54:28.008Z,42.87
2023-03-06T14:57:00.236Z,42.59
2023-03-06T14:59:28.987Z,42.54
2023-03-06T15:02:03.794Z,42.72
2023-03-06T15:04:38.595Z,42.66
2023-03-06T15:07:08.048Z,43.06
2023-03-06T15:09:36.125Z,42.88
2023-03-06T15:12:10.378Z,43.12
2023-03-06T15:14:41.840Z,43.06
2023-03-06T15:17:18.199Z,42.96
2023-03-06T15:19:46.804Z,43.24
2023-03-06T15:22:25.822Z,43.22
2023-03-06T15:24:53.038Z,43.26
2023-03-06T15:27:26.335Z,43.11
2023-03-06T15:29:53.446Z,43.14
2023-03-06T15:32:32.223Z,42.87
2023-03-06T15:35:24.538Z,43.20
2023-03-06T15:37:51.699Z,43.03
2023-03-06T15:40:23.180Z,43.12
2023-03-06T15:42:51.088Z,43.31
2023-03-06T15:45:22.812Z,43.15
2023-03-06T15:47:50.713Z,43.27
2023-03-06T15:50:19.733Z,43.17
2023-03-06T15:52:46.719Z,43.01
2023-03-06T15:55:14.724Z,43.24
2023-03-06T15:57:52.956Z,43.27
2023-03-06T16:00:28.677Z,43.25
2023-03-06T16:02:56.415Z,43.36
2023-03-06T16:05:23.694Z,43.18
2023-03-06T16:07:50.693Z,43.58
2023-03-06T16:10:19.473Z,43.25
2023-03-06T16:12:57.123Z,43.38
2023-03-06T16:15:28.916Z,43.24
2023-03-06T16:17:56.668Z,43.22
2023-03-06T16:20:25.196Z,43.36
2023-03-06T16:22:53.750Z,43.40
2023-03-06T16:25:21.097Z,43.23
2023-03-06T16:27:55.569Z,43.40
2023-03-06T16:30:23.054Z,43.45
2023-03-06T16:32:49.886Z,43.38
2023-03-06T16:35:18.449Z,43.31
2023-03-06T16:37:45.522Z,43.70
2023-03-06T16:40:22.153Z,43.87
2023-03-06T16:42:49.790Z,43.78
2023-03-06T16:45:17.776Z,43.83
2023-03-06T16:47:45.028Z,43.62
2023-03-06T16:50:33.562Z,44.05
2023-03-06T16:53:00.480Z,43.77
2023-03-06T16:55:28.021Z,43.60
2023-03-06T16:57:54.779Z,43.65
2023-03-06T17:00:22.283Z,43.71
2023-03-06T17:02:49.192Z,43.75
2023-03-06T17:05:16.420Z,43.81
2023-03-06T17:07:43.179Z,43.58
2023-03-06T17:10:12.739Z,43.77
2023-03-06T17:12:39.525Z,43.77
2023-03-06T17:15:07.108Z,43.66
2023-03-06T17:17:34.134Z,44.00
2023-03-06T17:20:01.520Z,43.90
2023-03-06T17:22:29.005Z,43.79
2023-03-06T17:24:56.110Z,43.83
2023-03-06T17:27:23.017Z,43.93
2023-03-06T17:29:50.169Z,44.06
2023-03-06T17:32:16.945Z,43.80
2023-03-06T17:34:44.145Z,43.65
2023-03-06T17:37:10.923Z,43.72
2023-03-06T17:39:38.893Z,43.71
2023-03-06T17:42:06.492Z,43.63
2023-03-06T17:44:34.338Z,43.77
2023-03-06T17:47:01.303Z,43.61
2023-03-06T17:49:28.421Z,43.97
2023-03-06T17:51:56.523Z,43.94
2023-03-06T17:54:26.129Z,43.79
2023-03-06T17:56:53.563Z,43.71
2023-03-06T17:59:20.737Z,43.80
2023-03-06T18:01:47.575Z,43.79
2023-03-06T18:04:14.717Z,44.00
2023-03-06T18:06:41.471Z,43.70
2023-03-06T18:09:10.110Z,43.88
2023-03-06T18:11:37.275Z,43.94
2023-03-06T18:14:05.557Z,43.87
2023-03-06T18:16:32.575Z,43.94
2023-03-06T18:18:59.710Z,43.96
2023-03-06T18:21:26.670Z,43.95
2023-03-06T18:23:53.774Z,43.82
2023-03-06T18:26:30.004Z,43.71
2023-03-06T18:28:58.390Z,43.76
2023-03-06T18:31:31.790Z,43.86
2023-03-06T18:34:02.907Z,43.96
2023-03-06T18:36:30.842Z,43.70
2023-03-06T18:38:58.485Z,43.97
2023-03-06T18:41:25.314Z,44.05
2023-03-06T18:43:53.658Z,43.84
2023-03-06T18:46:20.425Z,44.02
2023-03-06T18:48:47.502Z,43.95
2023-03-06T18:51:14.308Z,43.94
2023-03-06T18:53:41.550Z,43.91
2023-03-06T18:56:09.485Z,43.86
2023-03-06T18:58:36.693Z,44.20
2023-03-06T19:01:07.213Z,44.13
2023-03-06T19:03:34.436Z,43.78
2023-03-06T19:06:07.341Z,44.06
2023-03-06T19:08:35.089Z,43.95
2023-03-06T19:11:12.213Z,43.89
2023-03-06T19:13:39.350Z,43.84
2023-03-06T19:16:06.705Z,44.01
2023-03-06T19:18:34.048Z,44.07
2023-03-06T19:21:11.724Z,44.06
2023-03-06T19:23:39.554Z,44.03
2023-03-06T19:26:07.561Z,44.26
2023-03-06T19:28:36.259Z,43.89
2023-03-06T19:31:18.452Z,43.79
2023-03-06T19:33:47.413Z,44.13
2023-03-06T19:36:14.871Z,43.99
2023-03-06T19:38:42.014Z,44.27
2023-03-06T19:41:13.426Z,44.19
2023-03-06T19:43:41.305Z,44.38
2023-03-06T19:46:14.333Z,44.46
2023-03-06T19:48:41.830Z,44.36
2023-03-06T19:51:08.768Z,44.53
2023-03-06T19:53:35.908Z,44.41
2023-03-06T19:56:11.835Z,44.64
2023-03-06T19:58:40.704Z,44.63
2023-03-06T20:01:12.159Z,44.76
2023-03-06T20:03:39.490Z,44.46
2023-03-06T20:06:09.027Z,44.64
2023-03-06T20:08:36.624Z,44.52
2023-03-06T20:11:04.085Z,44.54
2023-03-06T20:13:31.401Z,44.67
2023-03-06T20:16:02.395Z,44.60
2023-03-06T20:18:29.608Z,44.74
2023-03-06T20:21:03.401Z,44.59
2023-03-06T20:23:30.744Z,44.70
2023-03-06T20:26:01.736Z,44.94
2023-03-06T20:28:28.837Z,44.83
2023-03-06T20:30:55.586Z,45.03
2023-03-06T20:33:23.284Z,44.98
2023-03-06T20:35:50.181Z,44.54
2023-03-06T20:38:17.302Z,44.82
2023-03-06T20:40:44.155Z,45.00
2023-03-06T20:43:11.307Z,44.80
2023-03-06T20:45:38.064Z,44.72
2023-03-06T20:48:05.314Z,45.28
2023-03-06T20:50:32.066Z,44.92
2023-03-06T20:52:59.148Z,44.93
2023-03-06T20:55:25.947Z,44.97
2023-03-06T20:57:53.021Z,45.00
2023-03-06T21:00:21.000Z,44.94
2023-03-06T21:02:48.220Z,44.89
2023-03-06T21:05:15.111Z,45.07
2023-03-06T21:07:42.278Z,45.09
2023-03-06T21:10:09.591Z,45.30
2023-03-06T21:12:36.713Z,45.35
2023-03-06T21:15:03.769Z,45.24
2023-03-06T21:17:30.878Z,45.08
2023-03-06T21:19:58.456Z,45.01
2023-03-06T21:22:25.619Z,45.09
2023-03-06T21:24:52.432Z,44.96
2023-03-06T21:27:19.585Z,45.37
2023-03-06T21:29:46.563Z,45.18
2023-03-06T21:32:13.771Z,45.57
2023-03-06T21:34:40.590Z,45.43
2023-03-06T21:37:07.636Z,45.46
2023-03-06T21:39:34.850Z,45.33
2023-03-06T21:42:02.059Z,45.16
2023-03-06T21:44:28.821Z,45.38
2023-03-06T21:46:55.887Z,45.10
2023-03-06T21:49:26.045Z,45.45
2023-03-06T21:51:53.405Z,45.30
2023-03-06T21:54:20.207Z,45.12
2023-03-06T21:56:47.477Z,45.31
2023-03-06T21:59:14.326Z,45.11
2023-03-06T22:01:42.769Z,45.43
2023-03-06T22:04:09.600Z,45.30
2023-03-06T22:06:37.939Z,45.50
2023-03-06T22:09:04.687Z,45.73
2023-03-06T22:11:34.266Z,45.58
2023-03-06T22:14:01.123Z,45.47
2023-03-06T22:16:28.358Z,45.48
2023-03-06T22:18:55.228Z,45.67
2023-03-06T22:21:22.579Z,45.60
2023-03-06T22:23:53.406Z,45.42
2023-03-06T22:26:20.596Z,45.45
2023-03-06T22:28:47.540Z,45.91
2023-03-06T22:31:16.590Z,45.89
2023-03-06T22:33:43.464Z,45.80
2023-03-06T22:36:12.553Z,45.49
2023-03-06T22:38:40.408Z,45.61
2023-03-06T22:41:07.851Z,45.56
2023-03-06T22:43:34.902Z,45.53
2023-03-06T22:46:15.853Z,45.49
2023-03-06T22:48:42.741Z,45.82
2023-03-06T22:51:11.442Z,45.92
2023-03-06T22:53:38.373Z,45.74
2023-03-06T22:56:07.746Z,45.53
2023-03-06T22:58:37.068Z,45.94
2023-03-06T23:01:05.843Z,45.69
2023-03-06T23:03:32.624Z,45.76
2023-03-06T23:05:59.696Z,45.68
2023-03-06T23:08:26.569Z,45.83
2023-03-06T23:10:53.682Z,45.99
2023-03-06T23:13:20.409Z,46.06
2023-03-06T23:15:47.538Z,45.82
2023-03-06T23:18:14.328Z,45.89
2023-03-06T23:20:43.490Z,45.81
2023-03-06T23:23:10.789Z,46.12
2023-03-06T23:25:37.847Z,46.18
2023-03-06T23:28:04.720Z,46.10
2023-03-06T23:30:31.862Z,46.11
2023-03-06T23:32:58.614Z,45.81
2023-03-06T23:35:25.746Z,45.93
2023-03-06T23:37:52.512Z,45.98
2023-03-06T23:40:19.615Z,46.08
2023-03-06T23:42:46.351Z,46.05
2023-03-06T23:45:13.409Z,45.97
2023-03-06T23:47:40.276Z,46.02
2023-03-06T23:50:07.761Z,45.99
2023-03-06T23:52:34.565Z,45.96
2023-03-06T23:55:01.585Z,46.07
2023-03-06T23:57:29.280Z,46.23
2023-03-06T23:59:56.864Z,45.91
